• Join FlightAware (Why Join?)
  • Login
  • US Flag 
02:37AM EST


 

Airport Tracker/Info


-or-


 

Live Flight TrackerFlight Track Log ✈ CES5320 ✈ 26-Aug-2014 ✈ ZGSZ / SZX - ZSSS / SHA

Flight Track Log - Related Links

Times and Time Zones

All times are in EDT time to prevent confusion due to time zone crossing. See the CES5320 flight status page for this flight to view local times or setup timezone preferences in your user account.

Time Position Orientation Groundspeed Altitude Reporting Facility
EDT Latitude Longitude Course Direction KTS MPH feet Rate Location/Type
08:07AM 23.3597 114.3927 36° Northeast  Level Estimated
08:08AM 23.4496 114.4656 37° Northeast  Level Estimated
08:09AM 23.5394 114.5387 37° Northeast  Level Estimated
08:10AM 23.6292 114.6119 37° Northeast  Level Estimated
08:11AM 23.7190 114.6852 37° Northeast  Level Estimated
08:12AM 23.8088 114.7585 37° Northeast  Level Estimated
08:13AM 23.8985 114.8320 37° Northeast  Level Estimated
08:14AM 23.9881 114.9056 37° Northeast  Level Estimated
08:15AM 24.0778 114.9792 37° Northeast  Level Estimated
08:16AM 24.1674 115.0530 37° Northeast  Level Estimated
08:17AM 24.2569 115.1269 37° Northeast  Level Estimated
08:18AM 24.3465 115.2009 37° Northeast  Level Estimated
08:19AM 24.4360 115.2750 37° Northeast  Level Estimated
08:20AM 24.5254 115.3492 37° Northeast  Level Estimated
08:21AM 24.6148 115.4235 37° Northeast  Level Estimated
08:22AM 24.7042 115.4979 37° Northeast  Level Estimated
08:23AM 24.7936 115.5724 37° Northeast  Level Estimated
08:24AM 24.8829 115.6470 37° Northeast  Level Estimated
08:25AM 24.9722 115.7218 37° Northeast  Level Estimated
08:26AM 25.0614 115.7966 37° Northeast  Level Estimated
08:27AM 25.1506 115.8716 37° Northeast  Level Estimated
08:28AM 25.2398 115.9466 37° Northeast  Level Estimated
08:29AM 25.3289 116.0218 37° Northeast  Level Estimated
08:30AM 25.4180 116.0971 37° Northeast  Level Estimated
08:31AM 25.5070 116.1725 37° Northeast  Level Estimated
08:32AM 25.5960 116.2480 37° Northeast  Level Estimated
08:33AM 25.6850 116.3236 37° Northeast  Level Estimated
08:34AM 25.7739 116.3993 37° Northeast  Level Estimated
08:35AM 25.8628 116.4752 38° Northeast  Level Estimated
08:36AM 25.9517 116.5511 38° Northeast  Level Estimated
08:37AM 26.0405 116.6272 38° Northeast  Level Estimated
08:38AM 26.1293 116.7034 38° Northeast  Level Estimated
08:39AM 26.2180 116.7797 38° Northeast  Level Estimated
08:40AM 26.3067 116.8561 38° Northeast  Level Estimated
08:41AM 26.3953 116.9326 38° Northeast  Level Estimated
08:42AM 26.4839 117.0093 38° Northeast  Level Estimated
08:43AM 26.5725 117.0861 38° Northeast  Level Estimated
08:44AM 26.6611 117.1630 38° Northeast  Level Estimated
08:45AM 26.7495 117.2400 38° Northeast  Level Estimated
08:46AM 26.8380 117.3171 38° Northeast  Level Estimated
08:47AM 26.9264 117.3944 38° Northeast  Level Estimated
08:48AM 27.0147 117.4717 38° Northeast  Level Estimated
08:49AM 27.1031 117.5492 38° Northeast  Level Estimated
08:50AM 27.1914 117.6268 38° Northeast  Level Estimated
08:51AM 27.2796 117.7046 38° Northeast  Level Estimated
08:52AM 27.3678 117.7824 38° Northeast  Level Estimated
08:53AM 27.4559 117.8604 38° Northeast  Level Estimated
08:54AM 27.5440 117.9386 38° Northeast  Level Estimated
08:55AM 27.6321 118.0168 38° Northeast  Level Estimated
08:56AM 27.7201 118.0952 38° Northeast  Level Estimated
08:57AM 27.8081 118.1736 38° Northeast  Level Estimated
08:58AM 27.8960 118.2523 38° Northeast  Level Estimated
08:59AM 27.9839 118.3310 38° Northeast  Level Estimated
09:00AM 28.0717 118.4099 38° Northeast  Level Estimated
09:01AM 28.1595 118.4889 38° Northeast  Level Estimated
09:02AM 28.2473 118.5680 38° Northeast  Level Estimated
09:03AM 28.3350 118.6473 38° Northeast  Level Estimated
09:04AM 28.4226 118.7267 39° Northeast  Level Estimated
09:05AM 28.5102 118.8062 39° Northeast  Level Estimated
09:06AM 28.5978 118.8858 39° Northeast  Level Estimated
09:07AM 28.6853 118.9656 39° Northeast  Level Estimated
09:08AM 28.7728 119.0456 39° Northeast  Level Estimated
09:09AM 28.8602 119.1256 39° Northeast  Level Estimated
09:10AM 28.9476 119.2058 39° Northeast  Level Estimated
09:11AM 29.0349 119.2861 39° Northeast  Level Estimated
09:12AM 29.1222 119.3666 39° Northeast  Level Estimated
09:13AM 29.2094 119.4472 39° Northeast  Level Estimated
09:14AM 29.2966 119.5279 39° Northeast  Level Estimated
09:15AM 29.3837 119.6088 39° Northeast  Level Estimated
09:16AM 29.4708 119.6898 39° Northeast  Level Estimated
09:17AM 29.5579 119.7710 39° Northeast  Level Estimated
09:18AM 29.6448 119.8523 39° Northeast  Level Estimated
09:19AM 29.7318 119.9337 39° Northeast  Level Estimated
09:20AM 29.8187 120.0153 39° Northeast  Level Estimated
09:21AM 29.9055 120.0970 39° Northeast  Level Estimated
09:22AM 29.9923 120.1788 39° Northeast  Level Estimated
09:23AM 30.0790 120.2608 39° Northeast  Level Estimated
09:24AM 30.1657 120.3430 39° Northeast  Level Estimated
09:25AM 30.2524 120.4253 39° Northeast  Level Estimated
09:26AM 30.3389 120.5077 39° Northeast  Level Estimated
09:27AM 30.4255 120.5903 39° Northeast  Level Estimated
09:28AM 30.5119 120.6730 39° Northeast  Level Estimated
09:28AM 29.4392 121.2363 36° Northeast 410 472 22,800  Level FlightAware ADS-B
09:28AM 29.4711 121.2668 55° Northeast 401 461 21,300 -1,920 Descending FlightAware ADS-B
09:29AM 29.5267 121.3576 56° Northeast 394 453 20,000 -1,860 Descending FlightAware ADS-B
09:30AM 29.5476 121.3928 55° Northeast 382 440 18,200 -1,740 Descending FlightAware ADS-B
09:31AM 29.6447 121.5543 57° Northeast 374 430 16,900 -1,020 Descending FlightAware ADS-B
09:32AM 29.6790 121.6206 60° Northeast 377 434 16,700 -180 Descending FlightAware ADS-B
09:32AM 29.7127 121.6868 60° Northeast 376 433 16,700  Level FlightAware ADS-B
09:33AM 29.7727 121.7859 45° Northeast 362 417 16,700  Level FlightAware ADS-B
09:34AM 29.8158 121.8436 55° Northeast 338 389 16,700  Level FlightAware ADS-B
09:35AM 29.8639 121.9143 36° Northeast 342 394 16,700  Level FlightAware ADS-B (ZSSL)
09:35AM 29.8655 121.9157 35° Northeast 343 395 16,700  Level FlightAware ADS-B (ZSSL)
09:36AM 29.9392 121.9514 North 335 386 16,700  Level FlightAware ADS-B
09:36AM 29.9928 121.9543 354° North 335 386 16,700  Level FlightAware ADS-B
09:36AM 30.0137 121.9502 349° North 334 384 16,700  Level FlightAware ADS-B (ZSSL)
09:37AM 30.0416 121.9427 344° North 333 383 16,700  Level FlightAware ADS-B
09:37AM 30.0869 121.9266 342° North 332 382 16,700 -240 Level FlightAware ADS-B
09:38AM 30.1185 121.9147 342° North 331 381 16,500 -720 Descending FlightAware ADS-B
09:39AM 30.2194 121.8658 331° Northwest 363 418 15,700 -960 Descending FlightAware ADS-B (ZSSL)
09:39AM 30.2541 121.8486 344° North 365 420 15,300 -1,260 Descending FlightAware ADS-B (ZSSL)
09:39AM 30.3004 121.8396 352° North 362 417 14,800 -1,080 Descending FlightAware ADS-B
09:40AM 30.3121 121.8378 353° North 358 412 14,700 -240 Descending FlightAware ADS-B (ZSSL)
09:40AM 30.3137 121.8375 353° North 353 406 14,700 -2,640 Level FlightAware ADS-B (ZSSL)
09:40AM 30.3646 121.8296 352° North 357 411 13,600 -2,400 Descending FlightAware ADS-B
09:41AM 30.4317 121.8149 347° North 348 400 12,500 -1,200 Descending FlightAware ADS-B
09:41AM 30.4825 121.7848 328° Northwest 312 359 12,000 -660 Descending FlightAware ADS-B
09:42AM 30.4865 121.7819 353° North 353 406 12,000 -360 Level FlightAware ADS-B (ZSSL)
09:42AM 30.4987 121.7728 328° Northwest 305 351 11,900 -1,740 Descending FlightAware ADS-B (ZSSL)
09:42AM 30.5318 121.7481 326° Northwest 302 348 11,100 -1,560 Descending FlightAware ADS-B
09:42AM 30.5335 121.7465 322° Northwest 301 346 11,100 -900 Level FlightAware ADS-B (ZSSL)
09:42AM 30.5393 121.7398 312° West 298 343 10,900 -3,000 Descending FlightAware ADS-B (ZSSL)
09:42AM 30.5482 121.7258 302° West 295 339 10,600 -1,440 Descending FlightAware ADS-B
09:43AM 30.5565 121.7059 292° West 290 334 10,300 -1,320 Descending FlightAware ADS-B (ZSSL)
09:43AM 30.5601 121.6928 287° West 288 331 10,100 -2,040 Descending FlightAware ADS-B
09:43AM 30.5637 121.6781 283° West 287 330 9,600 -780 Descending FlightAware ADS-B
09:44AM 30.5879 121.5521 303° West 282 325 8,800 -480 Descending FlightAware ADS-B (ZSSL)
09:45AM 30.5927 121.5447 311° West 277 319 8,900 600 Climbing FlightAware ADS-B (ZSSL)
09:45AM 30.5989 121.5373 317° Northwest 267 307 8,900  Level FlightAware ADS-B
09:45AM 30.6099 121.5257 319° Northwest 259 298 8,900  Level FlightAware ADS-B (ZSSL)
09:45AM 30.6193 121.5170 322° Northwest 250 288 8,900  Level FlightAware ADS-B
09:45AM 30.6243 121.5126 324° Northwest 245 282 8,900  Level FlightAware ADS-B (ZSSL)
09:45AM 30.6366 121.5021 324° Northwest 239 275 8,900  Level FlightAware ADS-B
09:45AM 30.6427 121.4970 324° Northwest 237 273 8,900 -300 Level FlightAware ADS-B (ZSSL)
09:46AM 30.6534 121.4880 324° Northwest 237 273 8,800 -360 Descending FlightAware ADS-B
09:46AM 30.6586 121.4836 324° Northwest 236 272 8,800 -960 Level FlightAware ADS-B (ZSSL)
09:46AM 30.6719 121.4722 323° Northwest 236 272 8,500 -1,320 Descending FlightAware ADS-B
09:46AM 30.6811 121.4642 323° Northwest 237 273 8,300 -960 Descending FlightAware ADS-B (ZSSL)
09:46AM 30.6945 121.4524 323° Northwest 235 270 8,000 -1,200 Descending FlightAware ADS-B (ZSSL)
09:47AM 30.6966 121.4506 323° Northwest 236 272 7,900 -480 Descending FlightAware ADS-B (ZSSL)
09:47AM 30.7079 121.4407 323° Northwest 229 264 7,900 -360 Level FlightAware ADS-B (ZSSL)
09:47AM 30.7139 121.4355 323° Northwest 230 265 7,800 -840 Descending FlightAware ADS-B (ZSSL)
09:47AM 30.7208 121.4294 323° Northwest 229 264 7,700 -900 Descending FlightAware ADS-B (ZSSL)
09:47AM 30.7301 121.4212 323° Northwest 228 262 7,500 -780 Descending FlightAware ADS-B (ZSSL)
09:47AM 30.7295 121.4217 323° Northwest 228 262 7,500 -1,200 Level FlightAware ADS-B (ZSSL)
09:48AM 30.7478 121.4055 322° Northwest 230 265 7,100 -1,440 Descending FlightAware ADS-B (ZSSL)
09:48AM 30.7664 121.3880 320° Northwest 234 269 6,600 -1,320 Descending FlightAware ADS-B (ZSSL)
09:48AM 30.7750 121.3798 327° Northwest 234 269 6,400 -1,440 Descending FlightAware ADS-B (ZSSL)
09:48AM 30.7836 121.3750 337° Northwest 234 269 6,200 -1,200 Descending FlightAware ADS-B (ZSSL)
09:48AM 30.7852 121.3742 339° North 233 268 6,200 -900 Level FlightAware ADS-B (ZSSL)
09:48AM 30.7960 121.3704 344° North 228 262 6,100 -720 Descending FlightAware ADS-B
09:49AM 30.8035 121.3665 333° Northwest 226 260 6,000 -960 Descending FlightAware ADS-B (ZSSL)
09:49AM 30.8139 121.3613 340° North 224 258 5,800 -1,140 Descending FlightAware ADS-B
09:49AM 30.8330 121.3562 353° North 220 253 5,500 -900 Descending FlightAware ADS-B
09:49AM 30.8533 121.3547 358° North 218 251 5,200 -960 Descending FlightAware ADS-B
09:50AM 30.8737 121.3539 358° North 222 255 4,900 -720 Descending FlightAware ADS-B
09:50AM 30.8839 121.3534 357° North 226 260 4,800 -720 Descending FlightAware ADS-B (ZSSL)
09:50AM 30.9069 121.3521 357° North 238 274 4,500 -780 Descending FlightAware ADS-B (ZSSL)
09:51AM 30.9275 121.3509 357° North 232 267 4,300 -840 Descending FlightAware ADS-B (ZSSL)
09:51AM 30.9468 121.3499 357° North 226 260 4,000 -960 Descending FlightAware ADS-B (ZSSL)
09:51AM 30.9816 121.3479 358° North 229 264 3,600 -720 Descending FlightAware ADS-B
09:52AM 30.9907 121.3475 357° North 229 264 3,500 -600 Descending FlightAware ADS-B (ZSSL)
09:52AM 30.9968 121.3472 346° North 222 255 3,400 -1,320 Descending FlightAware ADS-B (ZSSL)
09:52AM 31.0118 121.3464 357° North 227 261 3,100 -1,200 Descending FlightAware ADS-B (ZSSL)
09:52AM 31.0293 121.3454 358° North 227 261 2,800 -960 Descending FlightAware ADS-B (ZSSL)
09:52AM 31.0324 121.3452 357° North 225 259 2,800 -1,140 Level FlightAware ADS-B (ZSSL)
09:53AM 31.0516 121.3442 358° North 208 239 2,400 -1,080 Descending FlightAware ADS-B (ZSSL)
09:53AM 31.0713 121.3431 357° North 193 222 2,100 -900 Descending FlightAware ADS-B (ZSSL)
09:53AM 31.0883 121.3423 357° North 177 204 1,800 -900 Descending FlightAware ADS-B (ZSSL)
09:54AM 31.1050 121.3414 357° North 159 183 1,500 -1,080 Descending FlightAware ADS-B (ZSSL)
09:54AM 31.1266 121.3402 357° North 144 166 1,000 -840 Descending FlightAware ADS-B
09:55AM 31.1525 121.3387 357° North 144 166 600 -720 Descending FlightAware ADS-B
09:55AM 31.1761 121.3375 357° North 144 166 100 -900 Descending FlightAware ADS-B